Time;durP1;ratioP1;P1;durP2;ratioP2;P2;SDS_P1;SDS_P2;PMS_P1;PMS_P2;Temp;Humidity;BMP_temperature;BMP_pressure;BME280_temperature;BME280_humidity;BME280_pressure;Samples;Min_cycle;Max_cycle;Signal;HPM_P1;HPM_P2
2021/10/13 00:01:59;;;;;;;6.67;6.07;;;;;;;5.68;100.00;98275.75;4969998;28;20221;-70
2021/10/13 00:04:27;;;;;;;7.33;6.63;;;;;;;5.56;100.00;98278.44;4968235;28;20949;-70
2021/10/13 00:06:57;;;;;;;7.37;6.77;;;;;;;5.53;100.00;98277.88;4970065;28;20206;-69
2021/10/13 00:09:25;;;;;;;7.77;7.00;;;;;;;5.52;100.00;98287.53;4968947;28;20211;-69
2021/10/13 00:11:53;;;;;;;7.43;6.70;;;;;;;5.47;100.00;98285.28;4962798;28;20682;-70
2021/10/13 00:14:22;;;;;;;7.57;6.87;;;;;;;5.48;100.00;98289.56;4937336;28;21098;-69
2021/10/13 00:16:54;;;;;;;7.03;6.43;;;;;;;5.47;100.00;98294.97;4969564;28;20216;-70
2021/10/13 00:19:23;;;;;;;7.30;6.53;;;;;;;5.46;100.00;98294.13;4970367;28;20438;-70
2021/10/13 00:21:51;;;;;;;6.53;6.00;;;;;;;5.24;100.00;98297.63;4962809;28;20236;-68
2021/10/13 00:24:21;;;;;;;7.37;6.67;;;;;;;5.30;100.00;98301.59;4962471;28;20233;-70
2021/10/13 00:26:49;;;;;;;7.03;6.40;;;;;;;5.22;100.00;98305.66;4963855;28;20276;-69
2021/10/13 00:29:17;;;;;;;7.43;6.73;;;;;;;5.28;100.00;98298.25;4934326;28;20221;-69
2021/10/13 00:31:45;;;;;;;6.73;6.13;;;;;;;5.32;100.00;98304.91;4969605;28;20649;-70
2021/10/13 00:34:14;;;;;;;7.03;6.43;;;;;;;5.20;100.00;98293.59;4966686;28;20327;-69
2021/10/13 00:36:43;;;;;;;8.23;7.20;;;;;;;5.28;100.00;98298.25;4968022;28;20257;-72
2021/10/13 00:39:11;;;;;;;7.57;6.87;;;;;;;5.32;100.00;98302.28;4967703;28;20689;-70
2021/10/13 00:41:40;;;;;;;7.70;7.00;;;;;;;5.28;100.00;98303.50;4961652;28;20311;-71
2021/10/13 00:44:08;;;;;;;7.17;6.47;;;;;;;5.16;100.00;98310.56;4970010;28;20239;-70
2021/10/13 00:46:36;;;;;;;6.70;6.07;;;;;;;5.26;100.00;98308.03;4940437;28;20453;-70
2021/10/13 00:49:05;;;;;;;6.70;6.13;;;;;;;5.11;100.00;98307.47;4967568;28;20298;-70
2021/10/13 00:51:34;;;;;;;6.80;6.20;;;;;;;5.19;100.00;98310.31;4970841;28;20225;-70
2021/10/13 00:54:02;;;;;;;6.93;6.33;;;;;;;5.24;100.00;98307.34;4957084;28;20240;-71
2021/10/13 00:56:30;;;;;;;6.83;6.23;;;;;;;5.17;100.00;98312.22;4959555;28;21371;-71
2021/10/13 00:59:00;;;;;;;6.87;6.23;;;;;;;5.27;100.00;98320.22;4969580;28;20236;-69
2021/10/13 01:01:31;;;;;;;7.77;6.97;;;;;;;5.34;100.00;98310.88;4935503;28;20550;-70
2021/10/13 01:04:10;;;;;;;8.70;7.00;;;;;;;5.33;100.00;98315.31;4968818;28;20324;-70
2021/10/13 01:06:44;;;;;;;7.53;6.83;;;;;;;5.32;100.00;98323.31;4922439;28;20498;-70
2021/10/13 01:09:16;;;;;;;7.03;6.03;;;;;;;5.31;100.00;98308.50;4968892;28;20679;-68
2021/10/13 01:11:55;;;;;;;7.37;6.67;;;;;;;5.14;100.00;98315.09;4969217;28;20201;-71
2021/10/13 01:14:33;;;;;;;7.50;6.90;;;;;;;5.10;100.00;98316.31;4942230;28;20233;-71
2021/10/13 01:17:14;;;;;;;6.70;6.10;;;;;;;5.05;100.00;98316.66;4967712;28;20492;-71
2021/10/13 01:19:54;;;;;;;7.87;7.13;;;;;;;5.00;100.00;98321.44;4971308;28;20221;-71
2021/10/13 01:22:38;;;;;;;6.70;6.10;;;;;;;4.95;100.00;98321.81;4939850;28;20240;-70
2021/10/13 01:25:14;;;;;;;7.20;6.57;;;;;;;4.86;100.00;98310.25;4969746;28;20666;-71
2021/10/13 01:27:51;;;;;;;6.77;6.17;;;;;;;4.86;100.00;98327.78;4974243;28;20220;-70
2021/10/13 01:30:21;;;;;;;6.33;5.83;;;;;;;5.09;100.00;98330.41;4951746;28;20244;-70
2021/10/13 01:32:58;;;;;;;7.00;6.20;;;;;;;5.19;100.00;98333.97;4977334;28;20562;-70
2021/10/13 01:35:29;;;;;;;6.30;5.77;;;;;;;5.11;100.00;98339.00;4971862;28;20232;-70
2021/10/13 01:38:01;;;;;;;6.97;6.37;;;;;;;4.95;100.00;98340.22;4941718;28;20225;-71
2021/10/13 01:40:31;;;;;;;7.07;6.40;;;;;;;4.97;100.00;98351.44;4973818;28;20217;-71
2021/10/13 01:43:03;;;;;;;7.83;6.60;;;;;;;5.17;100.00;98349.88;4966253;28;20217;-70
2021/10/13 01:45:31;;;;;;;6.63;6.03;;;;;;;5.09;100.00;98352.25;4951229;28;20233;-70
2021/10/13 01:48:02;;;;;;;6.60;6.00;;;;;;;5.00;100.00;98353.81;4977422;28;20213;-71
2021/10/13 01:50:31;;;;;;;6.40;5.77;;;;;;;5.05;100.00;98361.31;4968561;28;20256;-70
2021/10/13 01:52:59;;;;;;;6.17;5.63;;;;;;;5.01;100.00;98360.75;4941247;28;20221;-69
2021/10/13 01:55:27;;;;;;;7.53;5.97;;;;;;;5.03;100.00;98361.44;4967159;28;20238;-70
2021/10/13 01:57:58;;;;;;;6.27;5.77;;;;;;;4.91;100.00;98365.00;4975447;28;20214;-70
2021/10/13 02:00:28;;;;;;;6.63;6.10;;;;;;;4.89;100.00;98372.19;4961732;28;20611;-71
2021/10/13 02:02:57;;;;;;;7.60;5.97;;;;;;;4.98;100.00;98371.50;4973097;28;20226;-71
2021/10/13 02:05:27;;;;;;;6.97;6.33;;;;;;;4.89;100.00;98373.03;4974027;28;20424;-71
2021/10/13 02:07:55;;;;;;;6.50;6.00;;;;;;;4.81;100.00;98385.91;4925849;28;20221;-71
2021/10/13 02:10:24;;;;;;;6.97;5.50;;;;;;;4.83;100.00;98389.25;4970095;28;20202;-70
2021/10/13 02:12:55;;;;;;;6.40;5.90;;;;;;;5.01;100.00;98401.91;4974058;28;20680;-70
2021/10/13 02:15:24;;;;;;;6.77;5.73;;;;;;;5.07;100.00;98396.19;4973199;28;20763;-70
2021/10/13 02:17:55;;;;;;;6.17;5.57;;;;;;;4.90;100.00;98400.97;4962847;28;20571;-70
2021/10/13 02:20:24;;;;;;;8.07;6.77;;;;;;;4.85;100.00;98400.47;4971143;28;20214;-71
2021/10/13 02:22:56;;;;;;;6.33;5.73;;;;;;;4.99;100.00;98406.44;4966047;28;20248;-70
2021/10/13 02:25:25;;;;;;;7.00;6.33;;;;;;;5.01;100.00;98412.44;4958672;28;20479;-71
2021/10/13 02:27:59;;;;;;;7.07;6.40;;;;;;;4.97;100.00;98411.84;4958454;28;20621;-70
2021/10/13 02:30:27;;;;;;;8.60;7.17;;;;;;;4.97;100.00;98406.59;4971018;28;20212;-71
2021/10/13 02:32:56;;;;;;;6.57;5.97;;;;;;;5.00;100.00;98410.75;4959131;28;20209;-70
2021/10/13 02:35:25;;;;;;;5.57;5.17;;;;;;;4.86;100.00;98419.69;4968092;28;20234;-69
2021/10/13 02:37:53;;;;;;;10.07;7.03;;;;;;;5.14;100.00;98413.16;4969110;28;20229;-70
2021/10/13 02:40:21;;;;;;;5.87;5.37;;;;;;;5.04;100.00;98415.66;4932404;28;20223;-70
2021/10/13 02:42:52;;;;;;;6.30;5.77;;;;;;;4.99;100.00;98425.69;4973302;28;20226;-71
2021/10/13 02:45:20;;;;;;;6.90;6.30;;;;;;;5.01;100.00;98423.78;4966371;28;20248;-70
2021/10/13 02:47:54;;;;;;;6.20;5.60;;;;;;;5.05;100.00;98427.00;4951042;28;20211;-70
2021/10/13 02:50:27;;;;;;;6.17;5.67;;;;;;;5.01;100.00;98431.66;4972131;28;20246;-69
2021/10/13 02:53:00;;;;;;;6.10;5.60;;;;;;;4.88;100.00;98436.16;4967798;28;20279;-71
2021/10/13 02:55:31;;;;;;;6.13;5.53;;;;;;;4.92;100.00;98433.19;4933739;28;20226;-70
2021/10/13 02:58:04;;;;;;;6.30;5.80;;;;;;;4.92;100.00;98440.22;4972770;28;20264;-70
2021/10/13 03:00:34;;;;;;;7.00;5.33;;;;;;;4.85;100.00;98434.63;4971963;28;20205;-70
2021/10/13 03:03:06;;;;;;;6.30;5.77;;;;;;;4.87;100.00;98445.00;4973285;28;20253;-70
2021/10/13 03:05:37;;;;;;;6.27;5.67;;;;;;;4.79;100.00;98448.22;4961975;28;20225;-69
2021/10/13 03:08:09;;;;;;;6.03;5.43;;;;;;;4.85;100.00;98454.78;4976061;28;20214;-71
2021/10/13 03:10:38;;;;;;;6.07;5.47;;;;;;;4.93;100.00;98450.63;4938715;28;20236;-70
2021/10/13 03:13:08;;;;;;;5.70;5.20;;;;;;;4.91;100.00;98451.69;4974314;28;20213;-71
2021/10/13 03:15:36;;;;;;;6.50;5.80;;;;;;;4.94;100.00;98448.84;4935259;28;20746;-70
2021/10/13 03:18:05;;;;;;;6.43;5.80;;;;;;;4.91;100.00;98454.31;4974792;28;20396;-69
2021/10/13 03:20:33;;;;;;;6.60;6.00;;;;;;;4.89;100.00;98448.34;4972046;28;20210;-70
2021/10/13 03:23:03;;;;;;;6.17;5.57;;;;;;;4.91;100.00;98463.03;4969049;28;20434;-70
2021/10/13 03:25:33;;;;;;;6.00;5.50;;;;;;;4.90;100.00;98461.38;4976001;28;20237;-70
2021/10/13 03:28:03;;;;;;;6.17;5.67;;;;;;;4.91;100.00;98465.66;4973914;28;20682;-71
2021/10/13 03:30:32;;;;;;;5.33;4.93;;;;;;;4.93;100.00;98468.19;4938994;28;20225;-71
2021/10/13 03:33:00;;;;;;;6.10;5.60;;;;;;;5.02;100.00;98470.13;4962197;28;20791;-71
2021/10/13 03:35:30;;;;;;;5.50;5.10;;;;;;;4.93;100.00;98457.69;4975011;28;20233;-70
2021/10/13 03:38:00;;;;;;;8.20;6.63;;;;;;;5.28;100.00;98469.88;4971671;28;20616;-70
2021/10/13 03:40:30;;;;;;;5.90;5.40;;;;;;;5.20;100.00;98467.00;4972839;28;20237;-69
2021/10/13 03:42:59;;;;;;;6.40;5.80;;;;;;;5.04;100.00;98467.34;4970299;28;20225;-71
2021/10/13 03:45:27;;;;;;;6.73;6.13;;;;;;;5.09;100.00;98470.47;4940079;28;20229;-71
2021/10/13 03:47:55;;;;;;;7.27;6.60;;;;;;;5.10;100.00;98468.69;4969561;28;20474;-71
2021/10/13 03:50:23;;;;;;;6.63;5.97;;;;;;;5.07;100.00;98475.84;4972750;28;20300;-70
2021/10/13 03:52:51;;;;;;;7.20;6.60;;;;;;;5.10;100.00;98482.63;4956452;28;20222;-70
2021/10/13 03:55:20;;;;;;;6.97;6.37;;;;;;;5.19;100.00;98483.72;4970995;28;20300;-70
2021/10/13 03:57:50;;;;;;;6.63;6.10;;;;;;;5.18;100.00;98480.28;4975975;28;20217;-71
2021/10/13 04:00:20;;;;;;;8.63;6.43;;;;;;;5.22;100.00;98488.75;4922777;28;20591;-69
2021/10/13 04:02:48;;;;;;;7.07;6.40;;;;;;;5.19;100.00;98476.69;4969020;28;20233;-69
2021/10/13 04:05:17;;;;;;;8.57;6.83;;;;;;;5.27;100.00;98491.03;4962997;28;20249;-72
2021/10/13 04:07:45;;;;;;;6.87;6.30;;;;;;;5.15;100.00;98483.16;4972291;28;20301;-69
2021/10/13 04:10:15;;;;;;;7.43;6.70;;;;;;;5.13;100.00;98482.44;4970758;28;20198;-67
2021/10/13 04:12:43;;;;;;;6.83;6.13;;;;;;;5.17;100.00;98480.38;4972077;28;20597;-69
2021/10/13 04:15:14;;;;;;;6.80;6.30;;;;;;;5.08;100.00;98484.56;4954824;28;20457;-68
2021/10/13 04:17:42;;;;;;;8.03;7.23;;;;;;;5.07;100.00;98480.25;4963743;28;20224;-69
2021/10/13 04:20:12;;;;;;;8.13;7.37;;;;;;;5.22;100.00;98486.13;4970670;28;20213;-67
2021/10/13 04:22:40;;;;;;;7.80;7.03;;;;;;;5.21;100.00;98487.09;4972337;28;20733;-69
2021/10/13 04:25:09;;;;;;;7.17;6.50;;;;;;;5.09;100.00;98483.59;4971691;28;20229;-67
2021/10/13 04:27:37;;;;;;;7.27;6.67;;;;;;;5.11;100.00;98480.88;4965954;28;20883;-69
2021/10/13 04:30:06;;;;;;;7.33;6.63;;;;;;;5.13;100.00;98484.22;4959339;28;20224;-68
2021/10/13 04:32:36;;;;;;;7.87;6.93;;;;;;;5.14;100.00;98483.25;4936585;28;20412;-69
2021/10/13 04:35:05;;;;;;;8.30;7.60;;;;;;;5.22;100.00;98486.97;4970497;28;20225;-69
2021/10/13 04:37:33;;;;;;;7.80;7.10;;;;;;;5.41;100.00;98489.97;4972358;28;20593;-70
2021/10/13 04:40:01;;;;;;;7.57;6.97;;;;;;;5.29;100.00;98489.13;4971328;28;20210;-70
2021/10/13 04:42:29;;;;;;;7.73;7.03;;;;;;;5.17;100.00;98489.13;4968040;28;20435;-68
2021/10/13 04:44:57;;;;;;;7.07;6.37;;;;;;;5.33;100.00;98493.19;4974405;28;20320;-67
2021/10/13 04:47:25;;;;;;;7.40;6.73;;;;;;;5.42;100.00;98497.72;4925037;28;20422;-69
2021/10/13 04:49:55;;;;;;;6.97;6.27;;;;;;;5.28;100.00;98503.22;4972322;28;20210;-69
2021/10/13 04:52:23;;;;;;;8.63;7.83;;;;;;;5.34;100.00;98505.38;4958934;28;20403;-68
2021/10/13 04:54:51;;;;;;;6.97;6.37;;;;;;;5.27;100.00;98501.56;4974206;28;20262;-71
2021/10/13 04:57:19;;;;;;;6.63;6.03;;;;;;;5.18;100.00;98506.56;4959913;28;20720;-72
2021/10/13 04:59:48;;;;;;;7.83;6.93;;;;;;;5.09;100.00;98504.59;4974248;28;20214;-71
2021/10/13 05:02:17;;;;;;;9.20;8.23;;;;;;;5.25;100.00;98513.97;4939597;28;22481;-72
2021/10/13 05:04:45;;;;;;;7.43;6.83;;;;;;;5.18;100.00;98510.97;4966324;28;20225;-72
2021/10/13 05:07:15;;;;;;;7.70;7.00;;;;;;;5.32;100.00;98520.44;4972090;28;20209;-69
2021/10/13 05:09:43;;;;;;;8.07;7.37;;;;;;;5.33;100.00;98533.47;4958663;28;20216;-71
2021/10/13 05:12:11;;;;;;;7.63;6.93;;;;;;;5.13;100.00;98532.34;4976228;28;20240;-72
2021/10/13 05:14:39;;;;;;;7.87;7.07;;;;;;;5.26;100.00;98537.50;4973243;28;20233;-70
2021/10/13 05:17:07;;;;;;;7.87;7.17;;;;;;;5.22;100.00;98539.53;4975653;28;20736;-73
2021/10/13 05:19:35;;;;;;;8.10;7.30;;;;;;;5.32;100.00;98542.31;4928168;28;20253;-72
2021/10/13 05:22:03;;;;;;;6.90;6.40;;;;;;;5.20;100.00;98549.31;4942543;28;20357;-73
2021/10/13 05:24:32;;;;;;;7.60;6.80;;;;;;;5.08;100.00;98547.59;4974756;28;20483;-71
2021/10/13 05:27:01;;;;;;;6.80;6.30;;;;;;;5.04;100.00;98559.28;4977024;28;20618;-71
2021/10/13 05:29:29;;;;;;;7.37;6.77;;;;;;;5.11;100.00;98557.06;4963766;28;20221;-70
2021/10/13 05:31:57;;;;;;;7.87;7.17;;;;;;;5.02;100.00;98558.56;4974988;28;20217;-72
2021/10/13 05:34:25;;;;;;;7.93;7.20;;;;;;;5.12;100.00;98553.47;4964727;28;20237;-73
2021/10/13 05:36:53;;;;;;;9.77;8.73;;;;;;;5.11;100.00;98563.13;4943802;28;20218;-72
2021/10/13 05:39:22;;;;;;;8.80;7.90;;;;;;;5.16;100.00;98566.28;4972694;28;20216;-69
2021/10/13 05:41:51;;;;;;;8.77;7.93;;;;;;;5.01;100.00;98568.25;4973122;28;20333;-69
2021/10/13 05:44:19;;;;;;;9.10;8.20;;;;;;;5.07;100.00;98566.94;4971048;28;20720;-71
2021/10/13 05:46:47;;;;;;;8.50;7.63;;;;;;;4.89;100.00;98572.63;4958628;28;20321;-70
2021/10/13 05:49:15;;;;;;;8.40;7.60;;;;;;;4.89;100.00;98577.03;4965119;28;20465;-70
2021/10/13 05:51:44;;;;;;;8.23;7.43;;;;;;;4.96;100.00;98580.06;4967251;28;20357;-71
2021/10/13 05:54:12;;;;;;;9.67;8.67;;;;;;;5.07;100.00;98587.97;4937149;28;20621;-72
2021/10/13 05:56:40;;;;;;;11.50;8.50;;;;;;;5.13;100.00;98594.56;4975462;28;20218;-71
2021/10/13 05:59:10;;;;;;;9.20;8.30;;;;;;;5.04;100.00;98602.19;4972915;28;20214;-72
2021/10/13 06:01:38;;;;;;;9.83;8.93;;;;;;;5.09;100.00;98604.44;4977724;28;20838;-73
2021/10/13 06:04:06;;;;;;;9.20;8.33;;;;;;;5.25;100.00;98617.28;4972342;28;20237;-72
2021/10/13 06:06:34;;;;;;;10.40;9.30;;;;;;;5.13;100.00;98611.19;4966041;28;20265;-71
2021/10/13 06:09:02;;;;;;;7.53;6.93;;;;;;;5.05;100.00;98605.63;4940790;28;20220;-74
2021/10/13 06:11:30;;;;;;;8.83;8.03;;;;;;;5.01;100.00;98615.53;4972323;28;20206;-73
2021/10/13 06:13:58;;;;;;;9.20;8.30;;;;;;;5.14;100.00;98612.84;4971803;28;20741;-72
2021/10/13 06:16:34;;;;;;;9.83;6.77;;;;;;;5.24;100.00;98617.41;4973114;28;20202;-72
2021/10/13 06:19:02;;;;;;;8.50;7.60;;;;;;;5.15;100.00;98627.66;4975192;28;20228;-74
2021/10/13 06:21:30;;;;;;;10.73;9.40;;;;;;;5.22;100.00;98633.28;4965612;28;20214;-68
2021/10/13 06:23:58;;;;;;;9.73;8.73;;;;;;;5.30;100.00;98635.34;4925170;28;20234;-73
2021/10/13 06:26:27;;;;;;;8.47;7.77;;;;;;;5.44;100.00;98637.75;4970085;28;20228;-73
2021/10/13 06:28:55;;;;;;;11.27;10.10;;;;;;;5.50;100.00;98642.59;4957484;28;20207;-70
2021/10/13 06:31:24;;;;;;;9.53;8.57;;;;;;;5.43;100.00;98643.16;4973674;28;20449;-74
2021/10/13 06:33:54;;;;;;;9.53;8.63;;;;;;;5.50;100.00;98645.22;4968533;28;20497;-71
2021/10/13 06:36:23;;;;;;;11.00;9.90;;;;;;;5.30;100.00;98645.84;4960248;28;20212;-71
2021/10/13 06:38:51;;;;;;;10.60;9.60;;;;;;;5.39;100.00;98649.59;4968689;28;20808;-72
2021/10/13 06:41:20;;;;;;;10.97;9.87;;;;;;;5.30;100.00;98654.59;4949805;28;20405;-73
2021/10/13 06:43:48;;;;;;;10.73;9.53;;;;;;;5.27;100.00;98664.50;4960646;28;20252;-72
2021/10/13 06:46:16;;;;;;;10.27;9.10;;;;;;;5.22;100.00;98647.28;4972865;28;20510;-72
2021/10/13 06:48:44;;;;;;;10.83;9.73;;;;;;;5.17;100.00;98662.53;4974740;28;20214;-72
2021/10/13 06:51:14;;;;;;;12.17;8.37;;;;;;;5.26;100.00;98665.44;4969719;28;20209;-72
2021/10/13 06:53:46;;;;;;;10.60;9.53;;;;;;;5.12;100.00;98669.94;4962649;28;20652;-73
2021/10/13 06:56:14;;;;;;;9.20;8.27;;;;;;;5.14;100.00;98673.28;4940715;28;20221;-74
2021/10/13 06:58:42;;;;;;;9.87;8.87;;;;;;;5.14;100.00;98673.28;4962175;28;20580;-73
2021/10/13 07:01:10;;;;;;;8.93;8.03;;;;;;;5.05;100.00;98674.78;4971448;28;20324;-72
2021/10/13 07:03:39;;;;;;;9.27;8.43;;;;;;;4.95;100.00;98675.56;4975553;28;20248;-72
2021/10/13 07:06:07;;;;;;;9.10;8.17;;;;;;;4.91;100.00;98675.78;4969848;28;20241;-71
2021/10/13 07:08:36;;;;;;;9.17;8.27;;;;;;;5.03;100.00;98686.34;4964401;28;20214;-73
2021/10/13 07:11:06;;;;;;;11.70;8.67;;;;;;;5.18;100.00;98693.13;4937281;28;20507;-72
2021/10/13 07:13:34;;;;;;;9.87;8.97;;;;;;;5.19;100.00;98686.91;4976851;28;20228;-75
2021/10/13 07:16:02;;;;;;;9.73;8.77;;;;;;;5.33;100.00;98688.53;4956681;28;20568;-73
2021/10/13 07:18:31;;;;;;;10.33;9.33;;;;;;;5.28;100.00;98700.31;4974188;28;20205;-74
2021/10/13 07:20:59;;;;;;;9.93;8.93;;;;;;;5.54;100.00;98693.13;4970118;28;20248;-73
2021/10/13 07:23:27;;;;;;;10.13;9.23;;;;;;;5.43;100.00;98690.47;4960488;28;20958;-72
2021/10/13 07:25:57;;;;;;;12.03;10.83;;;;;;;5.32;100.00;98683.38;4939859;28;20218;-70
2021/10/13 07:28:26;;;;;;;10.87;9.80;;;;;;;5.28;100.00;98688.00;4928409;28;20874;-72
2021/10/13 07:30:55;;;;;;;10.43;9.43;;;;;;;5.55;100.00;98679.03;4974899;28;20389;-74
2021/10/13 07:33:26;;;;;;;10.30;9.20;;;;;;;5.40;100.00;98686.28;4972422;28;20244;-74
2021/10/13 07:35:57;;;;;;;10.07;8.73;;;;;;;5.51;100.00;98685.47;4970863;28;20626;-73
2021/10/13 07:38:29;;;;;;;9.93;8.97;;;;;;;5.41;100.00;98690.56;4968289;28;20426;-70
2021/10/13 07:40:58;;;;;;;8.73;8.00;;;;;;;5.49;100.00;98693.50;4972062;28;20209;-72
2021/10/13 07:43:28;;;;;;;8.40;7.70;;;;;;;5.44;100.00;98695.59;4936256;28;20348;-71
2021/10/13 07:45:56;;;;;;;10.40;8.47;;;;;;;5.74;100.00;98698.69;4970122;28;20665;-74
2021/10/13 07:48:25;;;;;;;9.00;8.20;;;;;;;5.84;100.00;98699.66;4969445;28;20738;-72
2021/10/13 07:50:55;;;;;;;12.60;8.30;;;;;;;6.02;100.00;98705.34;4973454;28;20218;-72
2021/10/13 07:53:23;;;;;;;9.77;8.77;;;;;;;5.90;100.00;98703.63;4967811;28;20451;-74
2021/10/13 07:55:51;;;;;;;7.03;6.43;;;;;;;5.93;100.00;98704.22;4972356;28;20217;-69
2021/10/13 07:58:21;;;;;;;7.73;7.03;;;;;;;6.15;100.00;98709.66;4935353;28;20217;-70
2021/10/13 08:00:54;;;;;;;8.40;7.57;;;;;;;6.31;100.00;98702.28;4972244;28;20210;-73
2021/10/13 08:03:25;;;;;;;7.57;6.90;;;;;;;6.55;100.00;98705.75;4965966;28;20440;-73
2021/10/13 08:05:53;;;;;;;7.43;6.80;;;;;;;6.60;100.00;98712.31;4972153;28;20229;-74
2021/10/13 08:08:21;;;;;;;8.50;7.77;;;;;;;6.66;100.00;98711.00;4971639;28;20412;-74
2021/10/13 08:10:49;;;;;;;8.40;7.60;;;;;;;6.83;100.00;98717.56;4974861;28;20198;-75
2021/10/13 08:13:17;;;;;;;7.60;6.93;;;;;;;6.69;100.00;98718.66;4970748;28;20585;-73
2021/10/13 08:15:46;;;;;;;7.60;6.83;;;;;;;6.69;100.00;98723.09;4939517;28;20217;-72
2021/10/13 08:18:15;;;;;;;6.87;6.27;;;;;;;7.13;100.00;98713.41;4967566;28;20273;-72
2021/10/13 08:20:43;;;;;;;7.47;6.77;;;;;;;7.01;100.00;98728.44;4972708;28;20212;-72
2021/10/13 08:23:11;;;;;;;6.70;6.10;;;;;;;6.58;100.00;98723.94;4967241;28;20226;-71
2021/10/13 08:25:40;;;;;;;7.30;6.67;;;;;;;6.63;100.00;98721.78;4970537;28;20244;-72
2021/10/13 08:28:08;;;;;;;7.03;6.23;;;;;;;6.70;100.00;98722.97;4973629;28;20300;-73
2021/10/13 08:30:36;;;;;;;7.10;6.50;;;;;;;6.56;100.00;98726.66;4932675;28;20979;-72
2021/10/13 08:33:06;;;;;;;7.00;6.30;;;;;;;6.72;100.00;98726.31;4970074;28;20591;-74
2021/10/13 08:35:35;;;;;;;11.40;6.57;;;;;;;6.72;100.00;98726.31;4970672;28;20620;-71
2021/10/13 08:38:03;;;;;;;7.00;6.30;;;;;;;6.62;100.00;98731.44;4972731;28;20214;-73
2021/10/13 08:40:32;;;;;;;6.87;6.27;;;;;;;6.93;100.00;98728.22;4968478;28;20459;-71
2021/10/13 08:43:02;;;;;;;6.57;5.97;;;;;;;6.79;100.00;98735.38;4974497;28;20218;-75
2021/10/13 08:45:33;;;;;;;7.40;6.77;;;;;;;7.00;100.00;98726.75;4931665;28;20241;-73
2021/10/13 08:48:04;;;;;;;8.63;6.77;;;;;;;7.01;100.00;98732.84;4971573;28;20618;-72
2021/10/13 08:50:35;;;;;;;6.93;6.30;;;;;;;7.22;100.00;98738.22;4967473;28;20565;-73
2021/10/13 08:53:07;;;;;;;7.10;6.27;;;;;;;7.23;100.00;98734.63;4972870;28;20208;-73
2021/10/13 08:55:38;;;;;;;6.93;6.23;;;;;;;7.19;100.00;98725.25;4969698;28;20238;-74
2021/10/13 08:58:11;;;;;;;6.43;5.77;;;;;;;7.01;100.00;98735.47;4970742;28;20682;-71
2021/10/13 09:00:40;;;;;;;6.03;5.53;;;;;;;7.21;100.00;98734.72;4969800;28;20214;-74
2021/10/13 09:03:08;;;;;;;6.93;5.97;;;;;;;7.50;100.00;98731.50;4937018;28;20637;-71
2021/10/13 09:05:44;;;;;;;6.30;5.57;;;;;;;7.46;100.00;98724.81;4971659;28;20237;-73
2021/10/13 09:08:12;;;;;;;6.63;5.60;;;;;;;7.72;100.00;98732.34;4968934;28;20285;-70
2021/10/13 09:10:40;;;;;;;5.87;5.37;;;;;;;7.93;100.00;98727.09;4973732;28;20210;-74
2021/10/13 09:13:13;;;;;;;8.57;5.80;;;;;;;7.98;100.00;98724.06;4971342;28;20220;-73
2021/10/13 09:15:47;;;;;;;6.10;5.47;;;;;;;7.85;100.00;98720.81;4974397;28;20206;-73
2021/10/13 09:18:15;;;;;;;6.27;5.77;;;;;;;7.82;100.00;98727.16;4937113;28;20717;-72
2021/10/13 09:20:49;;;;;;;6.07;5.53;;;;;;;7.59;100.00;98734.34;4972260;28;20210;-70
2021/10/13 09:23:19;;;;;;;5.30;4.90;;;;;;;7.37;100.00;98736.94;4967285;28;20217;-72
2021/10/13 09:26:06;;;;;;;5.50;5.00;;;;;;;7.18;100.00;98736.75;4973602;28;20299;-71
2021/10/13 09:28:41;;;;;;;5.63;5.23;;;;;;;7.23;100.00;98743.34;4972074;28;20682;-71
2021/10/13 09:31:17;;;;;;;5.53;5.13;;;;;;;7.01;100.00;98738.13;4972508;28;20233;-71
2021/10/13 09:33:55;;;;;;;6.27;5.47;;;;;;;7.22;100.00;98743.47;4940783;28;20233;-72
2021/10/13 09:36:32;;;;;;;5.40;5.00;;;;;;;6.97;100.00;98744.59;4976447;28;20209;-74
2021/10/13 09:39:05;;;;;;;5.67;5.17;;;;;;;7.26;100.00;98738.78;4928643;28;20305;-72
2021/10/13 09:41:57;;;;;;;5.60;5.10;;;;;;;7.39;100.00;98736.84;4966522;28;20651;-71
2021/10/13 09:44:26;;;;;;;5.73;5.23;;;;;;;7.63;100.00;98735.78;4964800;28;20241;-74
2021/10/13 09:47:10;;;;;;;5.77;5.23;;;;;;;7.74;100.00;98735.72;4970024;28;20550;-70
2021/10/13 09:49:48;;;;;;;5.63;5.07;;;;;;;7.60;100.00;98728.97;4960667;28;20300;-72
2021/10/13 09:52:20;;;;;;;4.07;3.77;;;;;;;7.44;100.00;98733.81;4977096;28;20217;-72
2021/10/13 09:54:58;;;;;;;4.93;3.93;;;;;;;7.33;100.00;98735.53;4936804;28;20304;-71
2021/10/13 09:57:28;;;;;;;4.40;3.67;;;;;;;7.34;100.00;98725.81;4976886;28;20209;-72
2021/10/13 10:00:00;;;;;;;3.70;3.43;;;;;;;7.41;100.00;98732.28;4969080;28;20506;-73
2021/10/13 10:02:32;;;;;;;5.23;4.07;;;;;;;7.33;100.00;98735.53;4976453;28;20225;-72
2021/10/13 10:05:09;;;;;;;5.00;4.60;;;;;;;7.45;100.00;98732.84;4967182;28;20824;-73
2021/10/13 10:08:03;;;;;;;3.73;3.43;;;;;;;7.71;100.00;98728.03;4975070;28;20224;-72
2021/10/13 10:10:33;;;;;;;4.10;3.70;;;;;;;7.91;100.00;98733.47;4948326;28;20257;-72
2021/10/13 10:13:11;;;;;;;4.90;4.50;;;;;;;8.11;100.00;98737.91;4973456;28;20236;-73
2021/10/13 10:15:51;;;;;;;4.23;3.87;;;;;;;8.22;100.00;98736.16;4972281;28;20217;-71
2021/10/13 10:18:31;;;;;;;4.00;3.73;;;;;;;8.76;100.00;98736.84;4976585;28;20213;-73
2021/10/13 10:21:16;;;;;;;4.37;3.80;;;;;;;8.91;100.00;98733.81;4963943;28;20415;-72
2021/10/13 10:23:46;;;;;;;3.73;3.43;;;;;;;8.79;100.00;98731.31;4972503;28;20864;-71
2021/10/13 10:26:32;;;;;;;5.03;3.63;;;;;;;8.83;100.00;98734.50;4944027;28;20225;-72
2021/10/13 10:29:02;;;;;;;3.90;3.60;;;;;;;8.68;100.00;98740.16;4972418;28;20312;-73
2021/10/13 10:31:39;;;;;;;4.00;3.70;;;;;;;8.93;100.00;98735.38;4975315;28;20208;-72
2021/10/13 10:34:25;;;;;;;3.87;3.57;;;;;;;9.15;100.00;98733.47;4963369;28;20260;-75
2021/10/13 10:37:11;;;;;;;2.47;2.30;;;;;;;9.40;100.00;98734.72;4971666;28;20242;-74
2021/10/13 10:40:09;;;;;;;2.93;2.67;;;;;;;9.55;100.00;98735.16;4946338;28;20209;-73
2021/10/13 10:42:55;;;;;;;3.30;3.00;;;;;;;9.85;100.00;98730.69;4958934;28;20220;-72
2021/10/13 10:45:25;;;;;;;6.30;2.77;;;;;;;9.96;100.00;98726.22;4973860;28;20234;-71
2021/10/13 10:48:04;;;;;;;2.10;2.00;;;;;;;9.70;100.00;98730.28;4972774;28;20205;-73
2021/10/13 10:50:39;;;;;;;2.87;2.67;;;;;;;9.38;100.00;98723.47;4960501;28;20233;-71
2021/10/13 10:53:27;;;;;;;2.13;2.03;;;;;;;9.14;100.00;98728.31;4975062;28;20652;-72
2021/10/13 10:55:59;;;;;;;3.43;3.20;;;;;;;8.98;100.00;98734.94;4939631;28;20214;-70
2021/10/13 10:58:29;;;;;;;3.30;2.50;;;;;;;9.00;100.00;98730.38;4973790;28;20574;-71
2021/10/13 11:01:17;;;;;;;2.50;2.30;;;;;;;9.29;100.00;98728.75;4973983;28;20240;-70
2021/10/13 11:03:46;;;;;;;1.73;1.63;;;;;;;9.61;100.00;98723.19;4971053;28;20428;-72
2021/10/13 11:06:17;;;;;;;1.93;1.83;;;;;;;9.42;100.00;98724.03;4963037;28;20226;-72
2021/10/13 11:08:53;;;;;;;1.40;1.40;;;;;;;9.26;100.00;98729.88;4973227;28;20590;-70
2021/10/13 11:11:29;;;;;;;1.73;1.63;;;;;;;9.10;100.00;98735.69;4941151;28;20309;-73
2021/10/13 11:13:59;;;;;;;1.67;1.40;;;;;;;9.37;100.00;98731.56;4969491;28;20234;-72
2021/10/13 11:16:28;;;;;;;1.67;1.57;;;;;;;9.97;100.00;98725.22;4971021;28;20210;-72
2021/10/13 11:19:09;;;;;;;1.30;1.20;;;;;;;9.97;100.00;98726.09;4972354;28;20533;-73
2021/10/13 11:21:37;;;;;;;2.17;1.83;;;;;;;10.08;100.00;98727.75;4961740;28;20665;-72
2021/10/13 11:24:06;;;;;;;1.77;1.67;;;;;;;9.90;100.00;98719.69;4976363;28;20253;-72
2021/10/13 11:26:35;;;;;;;1.90;1.73;;;;;;;9.72;100.00;98722.22;4939331;28;20234;-74
2021/10/13 11:29:04;;;;;;;1.43;1.43;;;;;;;9.79;100.00;98738.34;4973013;28;20228;-73
2021/10/13 11:31:32;;;;;;;1.63;1.63;;;;;;;9.64;100.00;98730.00;4970884;28;20217;-71
2021/10/13 11:34:08;;;;;;;1.47;1.20;;;;;;;9.52;100.00;98724.84;4972131;28;20535;-70
2021/10/13 11:36:52;;;;;;;1.57;1.47;;;;;;;9.17;100.00;98731.50;4960649;28;20221;-72
2021/10/13 11:39:22;;;;;;;2.33;1.37;;;;;;;9.35;100.00;98726.38;4974029;28;20217;-71
2021/10/13 11:41:52;;;;;;;2.70;2.00;;;;;;;9.48;100.00;98722.66;4936809;28;20434;-72
2021/10/13 11:44:21;;;;;;;1.67;1.57;;;;;;;9.38;100.00;98730.56;4979231;28;20621;-72
2021/10/13 11:47:02;;;;;;;2.17;1.97;;;;;;;9.23;100.00;98733.59;4936090;28;20421;-74
2021/10/13 11:49:31;;;;;;;3.53;1.70;;;;;;;9.16;100.00;98732.47;4963047;28;20225;-72